createdAt,value
2023-04-17T00:00:39.733Z,71.84
2023-04-17T00:03:07.932Z,72.08
2023-04-17T00:05:40.340Z,72.19
2023-04-17T00:08:11.365Z,72.00
2023-04-17T00:10:39.312Z,72.37
2023-04-17T00:13:07.174Z,72.23
2023-04-17T00:15:35.171Z,72.70
2023-04-17T00:18:03.455Z,72.88
2023-04-17T00:20:31.382Z,73.47
2023-04-17T00:23:01.014Z,73.14
2023-04-17T00:25:28.938Z,73.65
2023-04-17T00:27:57.998Z,74.56
2023-04-17T00:30:26.166Z,74.02
2023-04-17T00:32:55.913Z,73.58
2023-04-17T00:35:23.896Z,73.57
2023-04-17T00:37:52.172Z,73.38
2023-04-17T00:40:21.662Z,73.12
2023-04-17T00:42:53.301Z,73.03
2023-04-17T00:45:21.689Z,72.80
2023-04-17T00:47:50.658Z,73.04
2023-04-17T00:50:19.614Z,73.12
2023-04-17T00:52:48.526Z,72.71
2023-04-17T00:55:17.061Z,73.04
2023-04-17T00:57:49.251Z,72.81
2023-04-17T01:00:18.316Z,72.91
2023-04-17T01:02:47.438Z,73.02
2023-04-17T01:05:15.770Z,72.93
2023-04-17T01:07:43.841Z,71.87
2023-04-17T01:10:12.132Z,71.94
2023-04-17T01:12:40.796Z,72.32
2023-04-17T01:15:10.870Z,72.77
2023-04-17T01:17:38.778Z,72.14
2023-04-17T01:20:09.264Z,72.08
2023-04-17T01:22:37.303Z,71.82
2023-04-17T01:25:07.187Z,72.44
2023-04-17T01:27:35.918Z,72.29
2023-04-17T01:30:04.052Z,72.32
2023-04-17T01:32:31.968Z,72.35
2023-04-17T01:35:00.231Z,72.42
2023-04-17T01:37:28.475Z,71.97
2023-04-17T01:39:56.772Z,72.76
2023-04-17T01:42:26.412Z,72.13
2023-04-17T01:44:54.649Z,72.79
2023-04-17T01:47:22.555Z,72.56
2023-04-17T01:49:50.602Z,72.67
2023-04-17T01:52:18.703Z,72.72
2023-04-17T01:54:46.552Z,72.55
2023-04-17T01:57:14.543Z,72.25
2023-04-17T01:59:43.947Z,72.35
2023-04-17T02:02:12.106Z,72.17
2023-04-17T02:04:40.260Z,72.35
2023-04-17T02:07:08.274Z,72.81
2023-04-17T02:09:39.363Z,73.28
2023-04-17T02:12:08.186Z,73.28
2023-04-17T02:14:36.191Z,72.88
2023-04-17T02:17:05.490Z,73.44
2023-04-17T02:19:33.488Z,73.34
2023-04-17T02:22:01.488Z,73.39
2023-04-17T02:24:29.452Z,73.39
2023-04-17T02:26:58.015Z,74.10
2023-04-17T02:29:25.987Z,73.82
2023-04-17T02:31:53.928Z,73.83
2023-04-17T02:34:23.369Z,74.05
2023-04-17T02:36:51.247Z,74.04
2023-04-17T02:39:19.145Z,74.04
2023-04-17T02:41:47.096Z,73.71
2023-04-17T02:44:15.024Z,75.03
2023-04-17T02:46:42.962Z,75.15
2023-04-17T02:49:11.052Z,75.43
2023-04-17T02:51:40.480Z,75.43
2023-04-17T02:54:08.513Z,75.68
2023-04-17T02:56:36.545Z,75.24
2023-04-17T02:59:04.530Z,76.13
2023-04-17T03:01:34.030Z,75.76
2023-04-17T03:04:03.317Z,76.15
2023-04-17T03:06:31.354Z,75.94
2023-04-17T03:09:00.772Z,76.45
2023-04-17T03:11:28.934Z,76.18
2023-04-17T03:13:56.786Z,76.39
2023-04-17T03:16:24.736Z,76.05
2023-04-17T03:18:53.106Z,76.42
2023-04-17T03:21:21.954Z,76.00
2023-04-17T03:23:49.924Z,76.13
2023-04-17T03:26:19.648Z,76.37
2023-04-17T03:28:47.722Z,76.41
2023-04-17T03:31:15.824Z,76.47
2023-04-17T03:33:43.937Z,76.30
2023-04-17T03:36:12.149Z,76.62
2023-04-17T03:38:40.085Z,76.74
2023-04-17T03:41:08.170Z,77.44
2023-04-17T03:43:37.528Z,77.50
2023-04-17T03:46:06.773Z,77.54
2023-04-17T03:48:34.821Z,77.82
2023-04-17T03:51:02.732Z,77.45
2023-04-17T03:53:30.960Z,77.70
2023-04-17T03:55:59.436Z,78.40
2023-04-17T03:58:27.408Z,78.56
2023-04-17T04:00:58.564Z,79.67
2023-04-17T04:03:26.884Z,79.40
2023-04-17T04:05:55.226Z,79.29
2023-04-17T04:08:23.362Z,79.53
2023-04-17T04:10:51.422Z,79.79
2023-04-17T04:13:19.482Z,79.67
2023-04-17T04:15:47.586Z,80.40
2023-04-17T04:18:17.546Z,79.94
2023-04-17T04:20:45.954Z,80.23
2023-04-17T04:23:16.755Z,80.84
2023-04-17T04:25:45.232Z,81.25
2023-04-17T04:28:13.306Z,80.93
2023-04-17T04:30:41.197Z,80.76
2023-04-17T04:33:09.295Z,80.13
2023-04-17T04:35:38.686Z,81.31
2023-04-17T04:38:06.693Z,81.37
2023-04-17T04:40:38.260Z,80.98
2023-04-17T04:43:06.906Z,81.10
2023-04-17T04:45:34.800Z,81.92
2023-04-17T04:48:03.603Z,80.95
2023-04-17T04:50:31.633Z,81.38
2023-04-17T04:53:00.949Z,81.70
2023-04-17T04:55:30.883Z,81.39
2023-04-17T04:57:58.950Z,81.77
2023-04-17T05:00:27.078Z,81.33
2023-04-17T05:02:55.277Z,81.44
2023-04-17T05:05:25.373Z,80.68
2023-04-17T05:07:55.037Z,80.83
2023-04-17T05:10:24.488Z,80.99
2023-04-17T05:12:52.350Z,81.37
2023-04-17T05:15:20.396Z,83.21
2023-04-17T05:17:48.330Z,81.92
2023-04-17T05:20:16.915Z,81.87
2023-04-17T05:22:44.861Z,81.50
2023-04-17T05:25:12.801Z,80.87
2023-04-17T05:27:42.662Z,81.10
2023-04-17T05:30:11.556Z,80.38
2023-04-17T05:32:39.607Z,80.84
2023-04-17T05:35:07.919Z,80.23
2023-04-17T05:37:35.988Z,80.07
2023-04-17T05:40:07.170Z,79.29
2023-04-17T05:42:35.805Z,79.46
2023-04-17T05:45:05.923Z,79.67
2023-04-17T05:47:33.878Z,79.36
2023-04-17T05:50:02.013Z,78.63
2023-04-17T05:52:30.030Z,78.31
2023-04-17T05:54:57.926Z,78.36
2023-04-17T05:57:26.069Z,78.51
2023-04-17T05:59:53.987Z,77.46
2023-04-17T06:02:23.590Z,75.71
2023-04-17T06:04:52.110Z,76.79
2023-04-17T06:07:20.762Z,74.95
2023-04-17T06:09:48.754Z,75.50
2023-04-17T06:12:16.924Z,76.86
2023-04-17T06:14:44.865Z,76.18
2023-04-17T06:17:13.447Z,74.76
2023-04-17T06:19:42.921Z,73.54
2023-04-17T06:22:10.977Z,74.69
2023-04-17T06:24:39.372Z,74.32
2023-04-17T06:27:07.306Z,74.08
2023-04-17T06:29:35.321Z,74.48
2023-04-17T06:32:03.251Z,73.60
2023-04-17T06:34:31.320Z,72.28
2023-04-17T06:37:00.764Z,70.45
2023-04-17T06:39:28.750Z,69.86
2023-04-17T06:41:56.998Z,68.96
2023-04-17T06:44:24.958Z,68.71
2023-04-17T06:46:53.678Z,68.57
2023-04-17T06:49:21.823Z,68.93
2023-04-17T06:51:49.809Z,67.97
2023-04-17T06:54:19.229Z,68.02
2023-04-17T06:56:47.280Z,68.10
2023-04-17T06:59:15.229Z,67.47
2023-04-17T07:01:43.249Z,67.47
2023-04-17T07:04:11.630Z,67.90
2023-04-17T07:06:39.760Z,67.12
2023-04-17T07:09:07.660Z,64.70
2023-04-17T07:11:37.229Z,57.26
2023-04-17T07:14:05.909Z,52.64
2023-04-17T07:16:33.923Z,47.25
2023-04-17T07:19:02.064Z,45.40
2023-04-17T07:21:30.024Z,45.54
2023-04-17T07:23:57.904Z,45.15
2023-04-17T07:26:25.787Z,41.02
2023-04-17T07:28:55.138Z,40.79
2023-04-17T07:31:23.372Z,40.78
2023-04-17T07:33:51.438Z,39.90
2023-04-17T07:36:19.522Z,37.14
2023-04-17T07:38:47.792Z,37.13
2023-04-17T07:41:15.826Z,35.76
2023-04-17T07:43:43.662Z,35.12
2023-04-17T07:46:13.057Z,35.32
2023-04-17T07:48:41.499Z,34.40
2023-04-17T07:51:09.380Z,32.55
2023-04-17T07:53:38.614Z,32.47
2023-04-17T07:56:07.177Z,32.12
2023-04-17T07:58:36.399Z,30.21
2023-04-17T08:01:07.225Z,31.38
2023-04-17T08:03:36.823Z,32.83
2023-04-17T08:06:04.930Z,31.57
2023-04-17T08:08:33.076Z,30.77
2023-04-17T08:11:01.031Z,31.97
2023-04-17T08:13:30.995Z,30.58
2023-04-17T08:15:59.610Z,30.11
2023-04-17T08:18:27.937Z,31.57
2023-04-17T08:20:57.256Z,30.93
2023-04-17T08:23:25.220Z,31.66
2023-04-17T08:25:53.135Z,31.45
2023-04-17T08:28:23.229Z,29.97
2023-04-17T08:30:51.222Z,29.29
2023-04-17T08:33:19.340Z,29.81
2023-04-17T08:35:47.407Z,28.63
2023-04-17T08:38:16.930Z,28.75
2023-04-17T08:40:47.164Z,29.42
2023-04-17T08:43:16.577Z,28.53
2023-04-17T08:45:53.641Z,27.89
2023-04-17T08:48:22.665Z,27.05
2023-04-17T08:50:53.122Z,26.91
2023-04-17T08:53:22.876Z,27.13
2023-04-17T08:55:50.952Z,25.94
2023-04-17T08:58:21.945Z,26.04
2023-04-17T09:00:50.556Z,26.00
2023-04-17T09:03:18.576Z,25.59
2023-04-17T09:05:47.011Z,26.01
2023-04-17T09:08:19.176Z,26.22
2023-04-17T09:10:49.959Z,25.30
2023-04-17T09:13:19.699Z,26.12
2023-04-17T09:15:49.734Z,25.45
2023-04-17T09:18:30.954Z,25.70
2023-04-17T09:21:00.090Z,26.98
2023-04-17T09:23:31.518Z,27.37
2023-04-17T09:26:11.672Z,28.06
2023-04-17T09:28:40.736Z,27.88
2023-04-17T09:31:26.293Z,27.73
2023-04-17T09:33:59.024Z,27.68
2023-04-17T09:36:31.166Z,28.52
2023-04-17T09:39:01.100Z,28.85
2023-04-17T09:41:31.750Z,29.14
2023-04-17T09:44:05.407Z,30.36
2023-04-17T09:46:38.211Z,31.39
2023-04-17T09:49:15.368Z,32.06
2023-04-17T09:51:46.729Z,33.20
2023-04-17T09:54:17.246Z,33.45
2023-04-17T09:56:49.645Z,34.22
2023-04-17T09:59:17.696Z,35.55
2023-04-17T10:01:46.778Z,36.14
2023-04-17T10:04:15.395Z,36.13
2023-04-17T10:06:44.522Z,36.84
2023-04-17T10:09:13.007Z,37.14
2023-04-17T10:11:43.748Z,36.93
2023-04-17T10:14:21.146Z,34.81
2023-04-17T10:16:49.339Z,36.03
2023-04-17T10:19:31.572Z,34.95
2023-04-17T10:22:34.156Z,35.93
2023-04-17T10:25:24.825Z,36.59
2023-04-17T10:27:54.636Z,37.28
2023-04-17T10:30:24.787Z,37.06
2023-04-17T10:33:22.088Z,37.50
2023-04-17T10:35:50.535Z,37.65
2023-04-17T10:38:32.386Z,36.89
2023-04-17T10:41:04.474Z,38.00
2023-04-17T10:43:33.293Z,38.41
2023-04-17T10:46:07.296Z,38.43
2023-04-17T10:48:38.810Z,39.16
2023-04-17T10:51:41.865Z,39.45
2023-04-17T10:54:13.743Z,39.74
2023-04-17T10:56:44.904Z,39.94
2023-04-17T10:59:14.300Z,40.76
2023-04-17T11:02:00.948Z,39.83
2023-04-17T11:04:31.306Z,39.76
2023-04-17T11:06:59.872Z,39.63
2023-04-17T11:09:30.492Z,38.91
2023-04-17T11:12:01.733Z,37.28
2023-04-17T11:14:30.334Z,36.41
2023-04-17T11:17:00.035Z,34.78
2023-04-17T11:19:28.434Z,35.14
2023-04-17T11:22:00.262Z,34.48
2023-04-17T11:24:29.843Z,33.34
2023-04-17T11:27:01.116Z,33.80
2023-04-17T11:29:29.399Z,33.34
2023-04-17T11:32:01.466Z,33.75
2023-04-17T11:34:30.407Z,33.87
2023-04-17T11:37:00.420Z,33.58
2023-04-17T11:39:31.303Z,33.18
2023-04-17T11:42:02.066Z,32.60
2023-04-17T11:44:30.565Z,33.32
2023-04-17T11:47:00.247Z,32.70
2023-04-17T11:49:29.315Z,32.76
2023-04-17T11:51:58.175Z,31.25
2023-04-17T11:54:29.094Z,31.77
2023-04-17T11:57:01.706Z,32.72
2023-04-17T11:59:33.892Z,32.06
2023-04-17T12:02:04.261Z,32.66
2023-04-17T12:04:34.363Z,33.04
2023-04-17T12:07:03.409Z,33.39
2023-04-17T12:09:32.671Z,33.84
2023-04-17T12:12:01.629Z,34.24
2023-04-17T12:14:29.748Z,33.93
2023-04-17T12:16:57.874Z,34.39
2023-04-17T12:19:29.272Z,34.40
2023-04-17T12:21:59.402Z,35.15
2023-04-17T12:24:27.493Z,34.72
2023-04-17T12:26:56.200Z,34.52
2023-04-17T12:29:36.821Z,34.81
2023-04-17T12:32:11.820Z,33.55
2023-04-17T12:34:41.839Z,32.98
2023-04-17T12:37:10.192Z,33.02
2023-04-17T12:39:38.175Z,33.14
2023-04-17T12:42:06.332Z,32.73
2023-04-17T12:44:34.215Z,32.88
2023-04-17T12:47:02.146Z,31.38
2023-04-17T12:49:30.153Z,31.57
2023-04-17T12:52:02.425Z,31.47
2023-04-17T12:54:31.473Z,31.42
2023-04-17T12:56:59.551Z,31.13
2023-04-17T12:59:27.697Z,30.65
2023-04-17T13:01:55.795Z,30.68
2023-04-17T13:04:24.217Z,30.41
2023-04-17T13:06:52.279Z,29.65
2023-04-17T13:09:21.746Z,30.02
2023-04-17T13:11:49.627Z,30.23
2023-04-17T13:14:17.788Z,30.84
2023-04-17T13:16:46.077Z,31.07
2023-04-17T13:19:14.171Z,31.57
2023-04-17T13:21:42.317Z,31.17
2023-04-17T13:24:14.668Z,31.34
2023-04-17T13:26:44.234Z,31.39
2023-04-17T13:29:12.395Z,30.39
2023-04-17T13:31:40.885Z,31.46
2023-04-17T13:34:08.835Z,32.18
2023-04-17T13:36:36.772Z,32.81
2023-04-17T13:39:05.498Z,32.63
2023-04-17T13:41:43.598Z,32.82
2023-04-17T13:44:11.644Z,33.56
2023-04-17T13:46:39.792Z,33.93
2023-04-17T13:49:08.138Z,34.10
2023-04-17T13:51:36.147Z,33.89
2023-04-17T13:54:04.202Z,34.04
2023-04-17T13:56:32.112Z,35.12
2023-04-17T13:59:01.386Z,35.31
2023-04-17T14:01:29.240Z,36.02
2023-04-17T14:04:01.560Z,35.70
2023-04-17T14:06:31.245Z,36.34
2023-04-17T14:08:59.286Z,36.21
2023-04-17T14:11:27.252Z,36.33
2023-04-17T14:13:55.438Z,36.72
2023-04-17T14:16:24.872Z,36.64
2023-04-17T14:18:53.224Z,36.63
2023-04-17T14:21:22.666Z,37.04
2023-04-17T14:23:52.109Z,36.62
2023-04-17T14:26:20.187Z,36.79
2023-04-17T14:28:48.705Z,37.08
2023-04-17T14:31:16.632Z,37.24
2023-04-17T14:33:45.934Z,37.44
2023-04-17T14:36:14.129Z,37.79
2023-04-17T14:38:42.076Z,38.17
2023-04-17T14:41:10.025Z,38.09
2023-04-17T14:43:38.496Z,37.73
2023-04-17T14:46:06.933Z,38.24
2023-04-17T14:48:44.242Z,38.94
2023-04-17T14:51:27.284Z,38.78
2023-04-17T14:53:55.581Z,38.39
2023-04-17T14:56:27.673Z,38.63
2023-04-17T14:58:58.118Z,39.03
2023-04-17T15:01:27.968Z,39.66
2023-04-17T15:03:56.603Z,40.09
2023-04-17T15:06:26.152Z,40.38
2023-04-17T15:08:54.205Z,40.94
2023-04-17T15:11:25.330Z,41.11
2023-04-17T15:13:53.289Z,41.15
2023-04-17T15:16:25.427Z,41.48
2023-04-17T15:18:53.643Z,41.65
2023-04-17T15:21:23.947Z,41.71
2023-04-17T15:23:53.482Z,41.38
2023-04-17T15:26:23.623Z,40.70
2023-04-17T15:28:51.646Z,40.33
2023-04-17T15:31:23.653Z,39.97
2023-04-17T15:33:51.812Z,39.64
2023-04-17T15:36:19.877Z,40.86
2023-04-17T15:38:47.773Z,39.86
2023-04-17T15:41:17.004Z,39.64
2023-04-17T15:43:44.940Z,40.32
2023-04-17T15:46:12.950Z,39.68
2023-04-17T15:48:40.952Z,39.78
2023-04-17T15:51:09.711Z,39.90
2023-04-17T15:53:37.674Z,39.42
2023-04-17T15:56:06.847Z,39.01
2023-04-17T15:58:36.383Z,38.70
2023-04-17T16:01:04.445Z,38.05
2023-04-17T16:03:32.503Z,38.90
2023-04-17T16:06:00.588Z,39.66
2023-04-17T16:08:28.597Z,39.48
2023-04-17T16:10:56.463Z,39.86
2023-04-17T16:13:24.883Z,40.34
2023-04-17T16:15:54.274Z,40.74
2023-04-17T16:18:26.014Z,41.10
2023-04-17T16:20:54.073Z,40.84
2023-04-17T16:23:23.094Z,40.90
2023-04-17T16:25:51.293Z,40.84
2023-04-17T16:28:19.768Z,41.32
2023-04-17T16:30:47.953Z,41.62
2023-04-17T16:33:17.361Z,41.01
2023-04-17T16:35:45.409Z,40.86
2023-04-17T16:38:13.318Z,40.50
2023-04-17T16:41:03.191Z,40.18
2023-04-17T16:43:31.397Z,39.75
2023-04-17T16:46:01.313Z,38.46
2023-04-17T16:48:35.178Z,37.54
2023-04-17T16:51:06.806Z,36.90
2023-04-17T16:53:34.815Z,36.99
2023-04-17T16:56:02.750Z,36.51
2023-04-17T16:58:30.991Z,36.86
2023-04-17T17:00:59.124Z,36.47
2023-04-17T17:03:27.211Z,35.58
2023-04-17T17:05:57.501Z,35.34
2023-04-17T17:08:25.859Z,35.46
2023-04-17T17:10:54.207Z,34.92
2023-04-17T17:13:23.578Z,35.33
2023-04-17T17:15:54.600Z,35.16
2023-04-17T17:18:26.161Z,34.50
2023-04-17T17:20:56.275Z,34.64
2023-04-17T17:23:26.401Z,34.56
2023-04-17T17:25:55.342Z,34.68
2023-04-17T17:28:24.258Z,34.79
2023-04-17T17:30:59.833Z,35.23
2023-04-17T17:33:27.886Z,35.53
2023-04-17T17:35:55.950Z,35.44
2023-04-17T17:38:28.729Z,35.33
2023-04-17T17:40:57.510Z,35.56
2023-04-17T17:43:25.831Z,35.83
2023-04-17T17:45:54.063Z,36.13
2023-04-17T17:48:22.889Z,37.02
2023-04-17T17:50:55.667Z,37.18
2023-04-17T17:53:27.165Z,37.52
2023-04-17T17:55:59.894Z,37.78
2023-04-17T17:58:28.080Z,37.97
2023-04-17T18:00:56.001Z,38.09
2023-04-17T18:03:25.000Z,38.17
2023-04-17T18:05:53.128Z,38.27
2023-04-17T18:08:21.352Z,39.39
2023-04-17T18:10:53.739Z,39.67
2023-04-17T18:13:22.283Z,39.53
2023-04-17T18:15:50.250Z,39.91
2023-04-17T18:18:18.677Z,40.85
2023-04-17T18:20:46.543Z,41.02
2023-04-17T18:23:14.616Z,41.21
2023-04-17T18:25:42.592Z,42.38
2023-04-17T18:28:11.995Z,42.80
2023-04-17T18:30:40.006Z,43.24
2023-04-17T18:33:08.368Z,43.27
2023-04-17T18:35:36.285Z,43.41
2023-04-17T18:38:04.265Z,44.02
2023-04-17T18:40:32.383Z,45.87
2023-04-17T18:43:00.449Z,47.43
2023-04-17T18:45:29.833Z,47.96
2023-04-17T18:47:57.897Z,47.80
2023-04-17T18:50:27.038Z,48.04
2023-04-17T18:52:54.882Z,47.96
2023-04-17T18:55:23.534Z,48.73
2023-04-17T18:57:51.755Z,48.31
2023-04-17T19:00:19.738Z,48.62
2023-04-17T19:02:49.586Z,49.51
2023-04-17T19:05:17.557Z,48.85
2023-04-17T19:07:46.080Z,49.24
2023-04-17T19:10:14.125Z,48.68
2023-04-17T19:12:43.153Z,48.66
2023-04-17T19:15:12.128Z,49.00
2023-04-17T19:17:40.274Z,48.98
2023-04-17T19:20:11.007Z,48.64
2023-04-17T19:22:38.971Z,48.96
2023-04-17T19:25:07.657Z,48.39
2023-04-17T19:27:35.850Z,48.93
2023-04-17T19:30:06.293Z,48.39
2023-04-17T19:32:34.251Z,48.54
2023-04-17T19:35:02.117Z,48.74
2023-04-17T19:37:31.367Z,48.67
2023-04-17T19:39:59.483Z,49.03
2023-04-17T19:42:27.388Z,49.19
2023-04-17T19:44:55.412Z,49.04
2023-04-17T19:47:24.371Z,49.60
2023-04-17T19:49:52.263Z,49.61
2023-04-17T19:52:20.187Z,50.26
2023-04-17T19:54:51.017Z,50.83
2023-04-17T19:57:19.057Z,51.10
2023-04-17T19:59:47.090Z,51.31
2023-04-17T20:02:16.116Z,51.83
2023-04-17T20:04:45.410Z,52.34
2023-04-17T20:07:13.349Z,52.51
2023-04-17T20:09:41.320Z,53.44
2023-04-17T20:12:10.642Z,53.97
2023-04-17T20:14:38.686Z,53.79
2023-04-17T20:17:06.721Z,54.09
2023-04-17T20:19:34.695Z,53.60
2023-04-17T20:22:02.667Z,54.74
2023-04-17T20:24:30.678Z,54.97
2023-04-17T20:26:59.321Z,54.95
2023-04-17T20:29:28.933Z,55.43
2023-04-17T20:31:56.966Z,56.12
2023-04-17T20:34:26.003Z,57.06
2023-04-17T20:36:53.989Z,56.52
2023-04-17T20:39:21.954Z,56.26
2023-04-17T20:41:49.891Z,56.79
2023-04-17T20:44:18.737Z,56.56
2023-04-17T20:46:48.178Z,56.91
2023-04-17T20:49:16.109Z,57.05
2023-04-17T20:51:44.445Z,57.72
2023-04-17T20:54:12.810Z,58.13
2023-04-17T20:56:40.953Z,58.53
2023-04-17T20:59:08.835Z,58.73
2023-04-17T21:01:37.099Z,58.22
2023-04-17T21:04:06.494Z,58.25
2023-04-17T21:06:34.609Z,59.06
2023-04-17T21:09:02.561Z,59.61
2023-04-17T21:11:30.691Z,60.05
2023-04-17T21:14:00.374Z,60.62
2023-04-17T21:16:28.713Z,59.96
2023-04-17T21:18:56.748Z,60.66
2023-04-17T21:21:26.270Z,60.21
2023-04-17T21:23:56.105Z,60.74
2023-04-17T21:26:24.204Z,60.97
2023-04-17T21:28:52.183Z,60.72
2023-04-17T21:31:20.346Z,61.11
2023-04-17T21:33:48.429Z,61.54
2023-04-17T21:36:16.439Z,62.18
2023-04-17T21:38:46.558Z,61.58
2023-04-17T21:41:14.461Z,62.15
2023-04-17T21:43:42.338Z,62.11
2023-04-17T21:46:11.600Z,62.58
2023-04-17T21:48:40.463Z,61.75
2023-04-17T21:51:08.383Z,62.35
2023-04-17T21:53:38.258Z,62.41
2023-04-17T21:56:08.262Z,63.03
2023-04-17T21:58:36.327Z,62.80
2023-04-17T22:01:04.636Z,62.10
2023-04-17T22:03:32.677Z,62.94
2023-04-17T22:06:00.685Z,63.18
2023-04-17T22:08:28.650Z,62.73
2023-04-17T22:10:56.651Z,62.53
2023-04-17T22:13:26.326Z,62.59
2023-04-17T22:15:55.240Z,62.26
2023-04-17T22:18:24.220Z,62.58
2023-04-17T22:20:52.064Z,62.58
2023-04-17T22:23:19.992Z,62.92
2023-04-17T22:25:47.870Z,62.29
2023-04-17T22:28:15.963Z,63.14
2023-04-17T22:30:45.462Z,63.63
2023-04-17T22:33:13.394Z,63.12
2023-04-17T22:35:41.265Z,63.48
2023-04-17T22:38:09.289Z,63.98
2023-04-17T22:40:37.773Z,64.13
2023-04-17T22:43:05.780Z,63.96
2023-04-17T22:45:33.957Z,64.36
2023-04-17T22:48:03.238Z,64.29
2023-04-17T22:50:32.519Z,64.36
2023-04-17T22:53:00.597Z,64.64
2023-04-17T22:55:28.558Z,64.58
2023-04-17T22:57:56.440Z,65.17
2023-04-17T23:00:25.501Z,65.25
2023-04-17T23:02:53.557Z,64.78
2023-04-17T23:05:23.174Z,64.59
2023-04-17T23:07:51.434Z,65.37
2023-04-17T23:10:19.382Z,65.48
2023-04-17T23:12:47.616Z,65.87
2023-04-17T23:15:15.489Z,66.03
2023-04-17T23:17:43.404Z,66.68
2023-04-17T23:20:12.728Z,66.39
2023-04-17T23:22:42.082Z,66.35
2023-04-17T23:25:11.042Z,67.38
2023-04-17T23:27:39.036Z,67.65
2023-04-17T23:30:08.378Z,68.44
2023-04-17T23:32:36.374Z,68.48
2023-04-17T23:35:04.669Z,69.27
2023-04-17T23:37:32.607Z,69.54
2023-04-17T23:40:03.261Z,69.86
2023-04-17T23:42:31.478Z,70.55
2023-04-17T23:44:59.915Z,70.20
2023-04-17T23:47:27.855Z,71.31
2023-04-17T23:49:56.184Z,72.13
2023-04-17T23:52:24.457Z,72.24
2023-04-17T23:54:52.502Z,72.32
2023-04-17T23:57:22.376Z,72.25
2023-04-17T23:59:53.285Z,71.95
